createdAt,value
2023-05-09T00:00:18.559Z,66.93
2023-05-09T00:03:06.373Z,67.63
2023-05-09T00:05:53.486Z,67.21
2023-05-09T00:08:40.516Z,67.55
2023-05-09T00:11:27.564Z,67.15
2023-05-09T00:14:14.650Z,67.22
2023-05-09T00:17:01.687Z,67.09
2023-05-09T00:19:48.624Z,67.88
2023-05-09T00:22:36.742Z,67.37
2023-05-09T00:25:23.966Z,67.05
2023-05-09T00:28:11.230Z,67.78
2023-05-09T00:30:58.541Z,67.67
2023-05-09T00:33:48.277Z,67.31
2023-05-09T00:36:35.389Z,67.51
2023-05-09T00:39:22.392Z,68.07
2023-05-09T00:42:09.711Z,67.42
2023-05-09T00:44:56.764Z,67.44
2023-05-09T00:47:44.006Z,67.61
2023-05-09T00:50:31.278Z,68.41
2023-05-09T00:53:18.783Z,67.72
2023-05-09T00:56:06.168Z,67.87
2023-05-09T00:58:53.251Z,67.88
2023-05-09T01:01:40.247Z,68.42
2023-05-09T01:04:27.518Z,68.43
2023-05-09T01:07:23.455Z,68.62
2023-05-09T01:10:20.790Z,68.37
2023-05-09T01:13:26.063Z,68.59
2023-05-09T01:16:24.637Z,68.53
2023-05-09T01:20:05.313Z,67.82
2023-05-09T01:22:55.880Z,68.73
2023-05-09T01:25:57.963Z,68.14
2023-05-09T01:29:06.379Z,68.90
2023-05-09T01:31:58.190Z,69.18
2023-05-09T01:34:49.131Z,68.43
2023-05-09T01:37:38.768Z,69.23
2023-05-09T01:40:45.857Z,69.21
2023-05-09T01:43:38.321Z,68.66
2023-05-09T01:46:25.764Z,69.61
2023-05-09T01:49:14.689Z,69.28
2023-05-09T01:52:03.107Z,69.18
2023-05-09T01:54:51.449Z,69.29
2023-05-09T01:57:40.562Z,69.20
2023-05-09T02:00:29.501Z,69.63
2023-05-09T02:03:17.831Z,69.35
2023-05-09T02:06:06.507Z,70.05
2023-05-09T02:08:53.664Z,70.18
2023-05-09T02:11:40.762Z,69.65
2023-05-09T02:14:27.856Z,69.62
2023-05-09T02:17:15.109Z,70.40
2023-05-09T02:20:03.784Z,70.23
2023-05-09T02:23:11.032Z,69.75
2023-05-09T02:25:58.999Z,70.48
2023-05-09T02:28:48.152Z,70.39
2023-05-09T02:31:39.176Z,70.41
2023-05-09T02:34:27.183Z,70.50
2023-05-09T02:37:14.363Z,70.13
2023-05-09T02:40:01.718Z,70.32
2023-05-09T02:42:49.304Z,70.63
2023-05-09T02:45:36.651Z,71.12
2023-05-09T02:48:23.902Z,70.50
2023-05-09T02:51:11.130Z,70.83
2023-05-09T02:53:58.147Z,71.33
2023-05-09T02:56:45.464Z,71.11
2023-05-09T02:59:32.437Z,71.06
2023-05-09T03:02:22.496Z,70.77
2023-05-09T03:05:10.150Z,71.45
2023-05-09T03:07:57.601Z,70.85
2023-05-09T03:10:44.586Z,71.83
2023-05-09T03:13:31.752Z,71.83
2023-05-09T03:16:19.096Z,71.24
2023-05-09T03:19:06.247Z,71.40
2023-05-09T03:21:53.228Z,71.25
2023-05-09T03:24:40.395Z,71.15
2023-05-09T03:27:27.424Z,71.29
2023-05-09T03:30:14.966Z,71.65
2023-05-09T03:33:04.087Z,71.25
2023-05-09T03:35:51.283Z,71.81
2023-05-09T03:38:38.298Z,71.34
2023-05-09T03:41:25.569Z,72.37
2023-05-09T03:44:13.116Z,71.81
2023-05-09T03:47:00.680Z,72.60
2023-05-09T03:49:52.677Z,72.44
2023-05-09T03:52:42.614Z,72.05
2023-05-09T03:55:30.373Z,72.12
2023-05-09T03:58:18.357Z,72.52
2023-05-09T04:01:05.907Z,71.81
2023-05-09T04:03:53.157Z,72.18
2023-05-09T04:06:41.262Z,71.97
2023-05-09T04:09:30.167Z,72.46
2023-05-09T04:12:17.138Z,72.65
2023-05-09T04:15:05.142Z,72.13
2023-05-09T04:17:52.237Z,72.52
2023-05-09T04:20:39.455Z,72.99
2023-05-09T04:23:26.332Z,72.64
2023-05-09T04:26:15.088Z,72.51
2023-05-09T04:29:05.112Z,72.40
2023-05-09T04:31:52.862Z,72.92
2023-05-09T04:34:42.864Z,73.04
2023-05-09T04:37:36.300Z,72.93
2023-05-09T04:40:25.489Z,73.43
2023-05-09T04:43:18.126Z,73.26
2023-05-09T04:46:05.440Z,72.87
2023-05-09T04:48:54.720Z,73.18
2023-05-09T04:51:41.744Z,73.17
2023-05-09T04:54:28.982Z,73.22
2023-05-09T04:57:18.317Z,73.03
2023-05-09T05:00:12.106Z,73.16
2023-05-09T05:02:59.964Z,72.72
2023-05-09T05:05:48.776Z,72.81
2023-05-09T05:08:36.084Z,72.82
2023-05-09T05:11:23.234Z,73.38
2023-05-09T05:14:10.491Z,73.12
2023-05-09T05:16:57.718Z,72.70
2023-05-09T05:19:44.736Z,73.18
2023-05-09T05:22:33.515Z,73.29
2023-05-09T05:25:20.567Z,72.89
2023-05-09T05:28:09.652Z,73.23
2023-05-09T05:30:58.064Z,73.30
2023-05-09T05:33:45.306Z,73.04
2023-05-09T05:36:32.431Z,73.30
2023-05-09T05:39:19.906Z,73.13
2023-05-09T05:42:07.820Z,73.08
2023-05-09T05:44:55.416Z,73.45
2023-05-09T05:47:43.150Z,72.96
2023-05-09T05:50:31.353Z,73.08
2023-05-09T05:53:18.361Z,73.29
2023-05-09T05:56:06.342Z,72.90
2023-05-09T05:58:53.598Z,73.07
2023-05-09T06:01:41.325Z,72.74
2023-05-09T06:04:28.556Z,73.54
2023-05-09T06:07:15.944Z,73.36
2023-05-09T06:10:02.855Z,73.10
2023-05-09T06:12:50.135Z,72.87
2023-05-09T06:15:38.649Z,72.24
2023-05-09T06:18:25.948Z,72.49
2023-05-09T06:21:14.068Z,72.43
2023-05-09T06:24:07.829Z,72.20
2023-05-09T06:26:59.246Z,71.92
2023-05-09T06:29:46.695Z,71.96
2023-05-09T06:32:33.695Z,71.81
2023-05-09T06:35:20.850Z,71.77
2023-05-09T06:38:07.728Z,72.04
2023-05-09T06:40:56.080Z,71.58
2023-05-09T06:43:43.086Z,71.04
2023-05-09T06:46:30.525Z,71.00
2023-05-09T06:49:17.691Z,71.09
2023-05-09T06:52:05.097Z,71.43
2023-05-09T06:54:52.047Z,70.83
2023-05-09T06:57:39.095Z,70.34
2023-05-09T07:00:26.679Z,70.94
2023-05-09T07:03:13.884Z,70.38
2023-05-09T07:06:00.885Z,69.60
2023-05-09T07:08:48.268Z,69.62
2023-05-09T07:11:35.312Z,69.50
2023-05-09T07:14:23.147Z,69.84
2023-05-09T07:17:22.231Z,69.71
2023-05-09T07:20:11.423Z,69.51
2023-05-09T07:22:58.460Z,68.98
2023-05-09T07:25:45.633Z,68.37
2023-05-09T07:28:32.738Z,68.86
2023-05-09T07:31:20.349Z,68.51
2023-05-09T07:34:07.331Z,68.81
2023-05-09T07:36:54.492Z,67.75
2023-05-09T07:39:41.692Z,68.01
2023-05-09T07:42:28.795Z,67.62
2023-05-09T07:45:16.069Z,67.86
2023-05-09T07:48:04.406Z,67.68
2023-05-09T07:50:51.704Z,67.67
2023-05-09T07:53:38.893Z,67.30
2023-05-09T07:56:28.726Z,67.47
2023-05-09T07:59:15.799Z,67.00
2023-05-09T08:02:02.862Z,66.62
2023-05-09T08:04:50.009Z,66.69
2023-05-09T08:07:37.221Z,67.17
2023-05-09T08:10:25.350Z,66.63
2023-05-09T08:13:12.709Z,66.56
2023-05-09T08:16:00.228Z,66.87
2023-05-09T08:18:47.527Z,66.28
2023-05-09T08:21:34.782Z,66.62
2023-05-09T08:24:21.999Z,66.05
2023-05-09T08:27:09.232Z,66.06
2023-05-09T08:29:56.181Z,65.56
2023-05-09T08:32:43.226Z,65.50
2023-05-09T08:35:30.543Z,66.23
2023-05-09T08:38:17.677Z,65.47
2023-05-09T08:41:04.798Z,65.82
2023-05-09T08:43:54.001Z,65.65
2023-05-09T08:46:51.063Z,64.58
2023-05-09T08:49:39.120Z,64.81
2023-05-09T08:52:26.372Z,64.95
2023-05-09T08:55:13.704Z,64.33
2023-05-09T08:58:01.419Z,64.08
2023-05-09T09:00:50.160Z,64.63
2023-05-09T09:03:37.816Z,63.50
2023-05-09T09:06:27.736Z,63.29
2023-05-09T09:09:15.502Z,63.99
2023-05-09T09:12:03.819Z,62.78
2023-05-09T09:14:52.513Z,62.85
2023-05-09T09:17:42.160Z,62.52
2023-05-09T09:20:33.187Z,62.61
2023-05-09T09:23:23.623Z,61.70
2023-05-09T09:26:17.678Z,62.11
2023-05-09T09:29:04.727Z,61.28
2023-05-09T09:31:52.063Z,61.40
2023-05-09T09:34:43.372Z,61.45
2023-05-09T09:37:42.119Z,61.29
2023-05-09T09:40:31.219Z,60.84
2023-05-09T09:43:18.237Z,59.59
2023-05-09T09:46:10.163Z,60.06
2023-05-09T09:48:57.319Z,60.12
2023-05-09T09:51:47.463Z,58.90
2023-05-09T09:54:35.113Z,58.33
2023-05-09T09:57:22.320Z,59.09
2023-05-09T10:00:19.221Z,58.49
2023-05-09T10:03:17.080Z,58.24
2023-05-09T10:06:04.230Z,58.39
2023-05-09T10:08:51.412Z,57.63
2023-05-09T10:11:38.423Z,57.05
2023-05-09T10:14:25.853Z,56.50
2023-05-09T10:17:16.279Z,56.12
2023-05-09T10:20:05.930Z,55.85
2023-05-09T10:22:54.532Z,55.35
2023-05-09T10:25:47.987Z,54.32
2023-05-09T10:28:38.741Z,54.37
2023-05-09T10:31:48.640Z,53.90
2023-05-09T10:34:36.057Z,53.52
2023-05-09T10:37:23.825Z,52.76
2023-05-09T10:40:11.430Z,52.16
2023-05-09T10:42:58.593Z,52.01
2023-05-09T10:45:46.080Z,51.41
2023-05-09T10:48:33.825Z,51.31
2023-05-09T10:51:24.707Z,50.95
2023-05-09T10:54:12.007Z,50.52
2023-05-09T10:56:59.145Z,50.08
2023-05-09T10:59:58.521Z,49.76
2023-05-09T11:02:45.920Z,49.40
2023-05-09T11:05:35.205Z,48.74
2023-05-09T11:08:48.576Z,49.32
2023-05-09T11:11:43.813Z,49.04
2023-05-09T11:14:49.399Z,48.29
2023-05-09T11:17:42.583Z,48.65
2023-05-09T11:20:29.954Z,47.97
2023-05-09T11:23:17.596Z,47.49
2023-05-09T11:26:08.923Z,47.44
2023-05-09T11:28:58.579Z,47.32
2023-05-09T11:31:45.828Z,47.09
2023-05-09T11:34:32.960Z,46.54
2023-05-09T11:37:35.880Z,47.15
2023-05-09T11:40:23.417Z,46.52
2023-05-09T11:43:12.857Z,46.20
2023-05-09T11:46:01.449Z,45.80
2023-05-09T11:48:48.629Z,45.95
2023-05-09T11:51:39.538Z,45.15
2023-05-09T11:54:27.681Z,45.25
2023-05-09T11:57:14.813Z,45.61
2023-05-09T12:00:02.077Z,44.86
2023-05-09T12:02:50.206Z,45.24
2023-05-09T12:05:39.150Z,45.29
2023-05-09T12:08:27.207Z,45.32
2023-05-09T12:11:14.289Z,45.07
2023-05-09T12:14:09.648Z,45.47
2023-05-09T12:17:05.403Z,46.05
2023-05-09T12:19:52.816Z,45.64
2023-05-09T12:22:39.954Z,45.45
2023-05-09T12:25:29.259Z,45.80
2023-05-09T12:28:16.437Z,45.91
2023-05-09T12:31:04.989Z,45.98
2023-05-09T12:33:52.130Z,46.12
2023-05-09T12:36:39.257Z,45.44
2023-05-09T12:39:32.886Z,45.70
2023-05-09T12:42:20.006Z,45.76
2023-05-09T12:45:10.928Z,46.00
2023-05-09T12:47:58.923Z,45.96
2023-05-09T12:50:52.673Z,45.67
2023-05-09T12:53:47.316Z,45.18
2023-05-09T12:56:39.120Z,45.72
2023-05-09T12:59:31.042Z,45.03
2023-05-09T13:02:20.069Z,44.72
2023-05-09T13:05:07.282Z,44.81
2023-05-09T13:08:00.060Z,44.79
2023-05-09T13:10:47.955Z,44.27
2023-05-09T13:13:38.642Z,45.28
2023-05-09T13:16:26.352Z,44.55
2023-05-09T13:19:13.483Z,44.70
2023-05-09T13:22:01.313Z,45.19
2023-05-09T13:24:48.429Z,45.69
2023-05-09T13:27:35.550Z,46.09
2023-05-09T13:30:23.445Z,46.23
2023-05-09T13:33:24.688Z,45.74
2023-05-09T13:36:12.729Z,46.57
2023-05-09T13:39:00.117Z,47.18
2023-05-09T13:41:47.378Z,47.24
2023-05-09T13:44:34.846Z,47.79
2023-05-09T13:47:21.924Z,47.76
2023-05-09T13:50:09.360Z,48.06
2023-05-09T13:52:56.430Z,48.07
2023-05-09T13:55:43.671Z,47.90
2023-05-09T13:58:30.818Z,48.02
2023-05-09T14:01:18.147Z,48.18
2023-05-09T14:04:05.454Z,48.80
2023-05-09T14:06:52.574Z,48.38
2023-05-09T14:09:39.709Z,48.45
2023-05-09T14:12:27.250Z,48.57
2023-05-09T14:15:14.530Z,47.88
2023-05-09T14:18:01.614Z,48.74
2023-05-09T14:20:48.801Z,48.37
2023-05-09T14:23:35.989Z,48.54
2023-05-09T14:26:23.363Z,48.67
2023-05-09T14:29:10.406Z,48.50
2023-05-09T14:31:57.621Z,48.49
2023-05-09T14:34:44.848Z,49.21
2023-05-09T14:37:34.630Z,48.89
2023-05-09T14:40:21.843Z,49.58
2023-05-09T14:43:09.071Z,49.44
2023-05-09T14:45:56.266Z,49.47
2023-05-09T14:48:43.216Z,49.41
2023-05-09T14:51:30.404Z,49.52
2023-05-09T14:54:18.054Z,49.20
2023-05-09T14:57:05.213Z,49.56
2023-05-09T14:59:52.176Z,49.73
2023-05-09T15:02:39.623Z,49.18
2023-05-09T15:05:27.216Z,49.44
2023-05-09T15:08:14.470Z,49.06
2023-05-09T15:11:01.494Z,49.06
2023-05-09T15:13:48.591Z,49.03
2023-05-09T15:16:35.567Z,49.44
2023-05-09T15:19:22.665Z,48.69
2023-05-09T15:22:09.699Z,49.13
2023-05-09T15:24:56.932Z,48.91
2023-05-09T15:27:44.004Z,48.89
2023-05-09T15:30:31.633Z,48.60
2023-05-09T15:33:18.834Z,48.57
2023-05-09T15:35:54.875Z,48.85
2023-05-09T15:38:41.857Z,48.74
2023-05-09T15:41:28.823Z,49.28
2023-05-09T15:44:15.852Z,49.32
2023-05-09T15:47:02.866Z,49.36
2023-05-09T15:49:49.939Z,49.95
2023-05-09T15:52:37.116Z,49.59
2023-05-09T15:55:25.753Z,50.39
2023-05-09T15:58:13.985Z,50.16
2023-05-09T16:01:01.133Z,50.53
2023-05-09T16:03:48.348Z,50.23
2023-05-09T16:06:35.598Z,50.41
2023-05-09T16:09:23.063Z,50.79
2023-05-09T16:12:13.230Z,50.64
2023-05-09T16:15:00.316Z,50.72
2023-05-09T16:17:48.141Z,51.10
2023-05-09T16:20:35.472Z,50.32
2023-05-09T16:23:23.448Z,51.09
2023-05-09T16:26:10.584Z,50.79
2023-05-09T16:28:57.749Z,50.85
2023-05-09T16:31:47.815Z,51.43
2023-05-09T16:34:34.931Z,51.57
2023-05-09T16:37:22.901Z,51.73
2023-05-09T16:40:12.432Z,51.91
2023-05-09T16:42:59.587Z,51.09
2023-05-09T16:45:46.604Z,51.85
2023-05-09T16:48:34.871Z,51.47
2023-05-09T16:51:21.922Z,51.14
2023-05-09T16:54:09.148Z,51.85
2023-05-09T16:56:57.195Z,51.29
2023-05-09T16:59:44.609Z,51.79
2023-05-09T17:02:31.605Z,52.27
2023-05-09T17:05:18.942Z,52.25
2023-05-09T17:08:06.083Z,51.32
2023-05-09T17:10:53.448Z,51.54
2023-05-09T17:13:40.500Z,51.33
2023-05-09T17:16:27.688Z,51.11
2023-05-09T17:19:14.726Z,50.81
2023-05-09T17:22:01.996Z,51.36
2023-05-09T17:24:49.042Z,50.62
2023-05-09T17:27:39.128Z,51.42
2023-05-09T17:30:26.999Z,51.16
2023-05-09T17:33:14.238Z,51.33
2023-05-09T17:36:01.374Z,51.42
2023-05-09T17:38:48.423Z,51.89
2023-05-09T17:41:35.574Z,50.97
2023-05-09T17:44:22.507Z,51.42
2023-05-09T17:47:09.842Z,51.40
2023-05-09T17:49:57.023Z,52.02
2023-05-09T17:52:45.260Z,51.70
2023-05-09T17:55:32.493Z,51.80
2023-05-09T17:58:19.439Z,52.10
2023-05-09T18:01:06.466Z,51.91
2023-05-09T18:03:53.699Z,52.15
2023-05-09T18:06:40.990Z,53.09
2023-05-09T18:09:28.364Z,53.44
2023-05-09T18:12:15.476Z,53.59
2023-05-09T18:15:03.396Z,53.58
2023-05-09T18:17:51.532Z,52.92
2023-05-09T18:20:38.985Z,53.52
2023-05-09T18:23:25.989Z,53.91
2023-05-09T18:26:13.809Z,53.87
2023-05-09T18:29:00.804Z,54.60
2023-05-09T18:31:48.234Z,54.21
2023-05-09T18:34:35.373Z,55.51
2023-05-09T18:37:22.364Z,55.60
2023-05-09T18:40:09.473Z,55.77
2023-05-09T18:42:56.628Z,55.30
2023-05-09T18:45:44.144Z,55.39
2023-05-09T18:48:31.390Z,56.33
2023-05-09T18:51:18.717Z,55.92
2023-05-09T18:54:06.138Z,56.70
2023-05-09T18:56:53.297Z,57.32
2023-05-09T18:59:40.640Z,57.01
2023-05-09T19:02:27.701Z,57.90
2023-05-09T19:05:14.747Z,58.21
2023-05-09T19:08:01.765Z,58.40
2023-05-09T19:10:49.126Z,57.89
2023-05-09T19:13:36.239Z,58.05
2023-05-09T19:16:25.177Z,58.83
2023-05-09T19:19:16.619Z,59.35
2023-05-09T19:22:03.728Z,59.25
2023-05-09T19:24:52.338Z,59.77
2023-05-09T19:27:39.647Z,59.58
2023-05-09T19:30:27.283Z,59.43
2023-05-09T19:33:14.564Z,59.59
2023-05-09T19:36:02.176Z,60.24
2023-05-09T19:38:50.631Z,60.80
2023-05-09T19:41:37.788Z,60.43
2023-05-09T19:44:25.229Z,60.21
2023-05-09T19:47:12.136Z,60.86
2023-05-09T19:49:59.181Z,61.03
2023-05-09T19:52:46.101Z,60.66
2023-05-09T19:55:33.599Z,61.43
2023-05-09T19:58:21.773Z,61.64
2023-05-09T20:01:09.259Z,61.52
2023-05-09T20:04:00.824Z,61.87
2023-05-09T20:06:48.548Z,61.76
2023-05-09T20:09:36.053Z,61.85
2023-05-09T20:12:24.357Z,62.28
2023-05-09T20:15:11.402Z,62.78
2023-05-09T20:17:58.815Z,62.22
2023-05-09T20:20:45.990Z,62.25
2023-05-09T20:23:33.125Z,63.04
2023-05-09T20:26:20.220Z,62.63
2023-05-09T20:29:08.504Z,63.17
2023-05-09T20:31:55.575Z,63.11
2023-05-09T20:34:42.800Z,62.88
2023-05-09T20:37:29.864Z,62.84
2023-05-09T20:40:17.423Z,63.24
2023-05-09T20:43:04.803Z,63.59
2023-05-09T20:45:52.134Z,63.84
2023-05-09T20:48:39.181Z,63.32
2023-05-09T20:51:26.614Z,63.98
2023-05-09T20:54:13.715Z,63.54
2023-05-09T20:57:00.950Z,64.13
2023-05-09T20:59:28.323Z,64.32
2023-05-09T21:01:58.190Z,63.58
2023-05-09T21:04:25.682Z,64.05
2023-05-09T21:06:52.742Z,64.22
2023-05-09T21:09:19.946Z,64.65
2023-05-09T21:11:47.381Z,64.25
2023-05-09T21:14:14.520Z,64.04
2023-05-09T21:16:43.895Z,64.28
2023-05-09T21:19:11.301Z,64.48
2023-05-09T21:21:38.343Z,64.55
2023-05-09T21:24:09.218Z,64.61
2023-05-09T21:26:36.593Z,64.75
2023-05-09T21:29:03.706Z,64.37
2023-05-09T21:31:31.436Z,64.26
2023-05-09T21:33:59.618Z,64.15
2023-05-09T21:36:26.667Z,64.72
2023-05-09T21:38:53.747Z,64.48
2023-05-09T21:41:22.064Z,64.84
2023-05-09T21:43:49.120Z,64.37
2023-05-09T21:46:16.289Z,64.42
2023-05-09T21:48:43.432Z,64.67
2023-05-09T21:51:11.510Z,65.07
2023-05-09T21:53:38.576Z,64.85
2023-05-09T21:56:06.290Z,64.77
2023-05-09T21:58:33.301Z,64.86
2023-05-09T22:01:00.689Z,65.10
2023-05-09T22:03:27.911Z,65.00
2023-05-09T22:05:55.080Z,65.20
2023-05-09T22:08:23.133Z,65.31
2023-05-09T22:10:50.155Z,65.11
2023-05-09T22:13:17.309Z,65.45
2023-05-09T22:15:44.505Z,65.31
2023-05-09T22:18:11.696Z,65.71
2023-05-09T22:20:38.730Z,65.58
2023-05-09T22:23:05.695Z,65.57
2023-05-09T22:25:32.736Z,65.61
2023-05-09T22:27:59.780Z,65.59
2023-05-09T22:30:26.737Z,65.46
2023-05-09T22:32:53.777Z,65.45
2023-05-09T22:35:20.790Z,65.88
2023-05-09T22:37:47.688Z,65.97
2023-05-09T22:40:15.482Z,65.87
2023-05-09T22:42:42.800Z,65.76
2023-05-09T22:45:10.355Z,65.73
2023-05-09T22:47:37.631Z,66.03
2023-05-09T22:50:05.150Z,66.06
2023-05-09T22:52:32.112Z,66.10
2023-05-09T22:54:59.500Z,66.28
2023-05-09T22:57:26.672Z,66.10
2023-05-09T22:59:53.937Z,66.46
2023-05-09T23:02:21.372Z,66.34
2023-05-09T23:04:48.627Z,66.31
2023-05-09T23:07:15.992Z,66.88
2023-05-09T23:09:43.226Z,66.29
2023-05-09T23:12:10.775Z,66.72
2023-05-09T23:14:38.144Z,66.83
2023-05-09T23:17:05.360Z,66.67
2023-05-09T23:19:32.889Z,66.64
2023-05-09T23:22:00.176Z,66.79
2023-05-09T23:24:27.388Z,66.69
2023-05-09T23:26:54.309Z,67.19
2023-05-09T23:29:21.507Z,66.51
2023-05-09T23:31:48.753Z,66.90
2023-05-09T23:34:15.850Z,66.75
2023-05-09T23:36:42.971Z,67.38
2023-05-09T23:39:10.253Z,66.97
2023-05-09T23:41:44.483Z,67.18
2023-05-09T23:44:12.621Z,66.77
2023-05-09T23:46:39.678Z,67.57
2023-05-09T23:49:07.238Z,67.41
2023-05-09T23:51:34.458Z,67.15
2023-05-09T23:54:01.389Z,67.49
2023-05-09T23:56:28.443Z,67.61
2023-05-09T23:58:55.919Z,67.59
